createdAt,value
2019-02-20T00:00:27.086Z,22.25
2019-02-20T00:02:57.450Z,24.30
2019-02-20T00:05:27.938Z,27.67
2019-02-20T00:07:58.482Z,25.92
2019-02-20T00:10:29.014Z,35.10
2019-02-20T00:12:59.488Z,25.25
2019-02-20T00:15:30.007Z,22.32
2019-02-20T00:18:00.475Z,20.97
2019-02-20T00:20:30.937Z,30.65
2019-02-20T00:23:01.422Z,28.47
2019-02-20T00:25:31.909Z,24.43
2019-02-20T00:28:02.374Z,30.60
2019-02-20T00:30:32.901Z,29.67
2019-02-20T00:33:03.737Z,24.37
2019-02-20T00:35:34.192Z,23.05
2019-02-20T00:38:04.694Z,29.12
2019-02-20T00:40:35.114Z,35.05
2019-02-20T00:43:05.582Z,30.62
2019-02-20T00:45:45.464Z,34.00
2019-02-20T00:48:23.062Z,24.72
2019-02-20T00:50:58.590Z,20.90
2019-02-20T00:53:36.536Z,22.85
2019-02-20T00:56:07.041Z,23.18
2019-02-20T00:58:37.601Z,23.85
2019-02-20T01:01:08.063Z,28.05
2019-02-20T01:03:38.550Z,26.80
2019-02-20T01:06:08.999Z,36.10
2019-02-20T01:08:39.517Z,26.73
2019-02-20T01:11:09.990Z,20.23
2019-02-20T01:13:40.449Z,20.43
2019-02-20T01:16:10.894Z,24.35
2019-02-20T01:18:41.461Z,24.15
2019-02-20T01:21:11.936Z,26.60
2019-02-20T01:23:42.487Z,27.22
2019-02-20T01:26:12.971Z,24.32
2019-02-20T01:28:43.432Z,32.73
2019-02-20T01:31:13.932Z,22.22
2019-02-20T01:33:44.651Z,21.30
2019-02-20T01:36:15.117Z,25.47
2019-02-20T01:38:45.577Z,30.05
2019-02-20T01:41:15.999Z,26.95
2019-02-20T01:43:46.486Z,24.40
2019-02-20T01:46:16.961Z,20.40
2019-02-20T01:48:47.553Z,24.07
2019-02-20T01:51:18.039Z,26.00
2019-02-20T01:53:48.398Z,24.83
2019-02-20T01:56:18.901Z,29.27
2019-02-20T01:58:49.392Z,29.02
2019-02-20T02:01:19.839Z,13.93
2019-02-20T02:03:50.337Z,23.65
2019-02-20T02:06:20.843Z,19.95
2019-02-20T02:08:51.342Z,30.25
2019-02-20T02:11:21.822Z,22.30
2019-02-20T02:13:52.199Z,29.07
2019-02-20T02:16:22.662Z,22.13
2019-02-20T02:18:53.111Z,19.10
2019-02-20T02:21:23.628Z,23.42
2019-02-20T02:23:54.098Z,24.47
2019-02-20T02:26:24.620Z,27.27
2019-02-20T02:28:55.129Z,20.57
2019-02-20T02:31:25.600Z,18.67
2019-02-20T02:33:56.181Z,22.50
2019-02-20T02:36:26.598Z,14.07
2019-02-20T02:38:57.046Z,18.30
2019-02-20T02:41:27.517Z,18.32
2019-02-20T02:43:58.010Z,13.93
2019-02-20T02:46:28.457Z,30.10
2019-02-20T02:48:58.962Z,16.17
2019-02-20T02:51:29.436Z,21.42
2019-02-20T02:53:59.889Z,17.10
2019-02-20T02:56:30.313Z,23.07
2019-02-20T02:59:00.819Z,23.23
2019-02-20T03:01:31.231Z,20.72
2019-02-20T03:04:01.698Z,19.30
2019-02-20T03:06:32.177Z,17.15
2019-02-20T03:09:03.043Z,20.55
2019-02-20T03:11:33.657Z,13.25
2019-02-20T03:14:04.124Z,24.98
2019-02-20T03:16:34.616Z,28.12
2019-02-20T03:19:05.144Z,24.30
2019-02-20T03:21:35.637Z,22.95
2019-02-20T03:24:06.298Z,27.00
2019-02-20T03:26:36.798Z,22.35
2019-02-20T03:29:07.217Z,17.80
2019-02-20T03:31:37.719Z,22.35
2019-02-20T03:34:09.074Z,20.60
2019-02-20T03:36:39.801Z,19.65
2019-02-20T03:39:10.292Z,18.85
2019-02-20T03:41:40.746Z,16.13
2019-02-20T03:44:11.248Z,19.77
2019-02-20T03:46:41.679Z,20.72
2019-02-20T03:49:12.177Z,20.77
2019-02-20T03:51:42.675Z,25.72
2019-02-20T03:54:13.240Z,19.90
2019-02-20T03:56:43.750Z,26.33
2019-02-20T03:59:14.246Z,25.33
2019-02-20T04:01:44.761Z,17.82
2019-02-20T04:04:15.374Z,23.47
2019-02-20T05:01:23.220Z,28.10
2019-02-20T05:03:53.712Z,32.08
2019-02-20T05:06:24.265Z,38.75
2019-02-20T05:08:54.814Z,34.53
2019-02-20T05:11:25.521Z,40.92
2019-02-20T05:13:56.123Z,33.95
2019-02-20T05:16:26.742Z,40.58
2019-02-20T05:18:57.366Z,29.65
2019-02-20T05:21:27.909Z,34.10
2019-02-20T05:23:58.620Z,44.53
2019-02-20T05:26:29.132Z,40.43
2019-02-20T05:28:59.609Z,30.30
2019-02-20T05:31:30.266Z,31.05
2019-02-20T05:34:01.123Z,35.65
2019-02-20T05:36:31.632Z,36.57
2019-02-20T05:39:02.355Z,35.68
2019-02-20T05:41:32.848Z,40.05
2019-02-20T05:44:03.323Z,38.17
2019-02-20T05:46:33.910Z,35.17
2019-02-20T05:49:04.441Z,31.15
2019-02-20T05:51:34.923Z,42.45
2019-02-20T05:54:05.528Z,40.80
2019-02-20T05:56:36.097Z,36.58
2019-02-20T05:59:06.630Z,28.95
2019-02-20T06:01:37.144Z,39.55
2019-02-20T06:04:07.691Z,30.55
2019-02-20T06:06:38.149Z,41.40
2019-02-20T06:09:08.833Z,35.38
2019-02-20T06:11:39.483Z,28.80
2019-02-20T06:14:10.033Z,33.92
2019-02-20T06:16:40.620Z,47.03
2019-02-20T06:19:11.199Z,35.10
2019-02-20T06:21:41.589Z,33.80
2019-02-20T06:24:12.134Z,31.80
2019-02-20T06:26:42.630Z,36.73
2019-02-20T06:29:13.207Z,35.55
2019-02-20T06:31:43.816Z,38.83
2019-02-20T06:34:14.432Z,33.00
2019-02-20T06:36:45.019Z,26.33
2019-02-20T06:39:15.948Z,38.00
2019-02-20T06:41:48.873Z,39.92
2019-02-20T06:44:19.488Z,38.95
2019-02-20T06:46:49.973Z,28.20
2019-02-20T06:49:20.498Z,33.33
2019-02-20T06:51:51.096Z,39.00
2019-02-20T06:54:21.609Z,39.20
2019-02-20T06:56:52.105Z,37.47
2019-02-20T06:59:22.696Z,36.85
2019-02-20T07:01:53.175Z,34.80
2019-02-20T07:04:23.658Z,35.45
2019-02-20T07:07:58.348Z,38.10
2019-02-20T07:11:09.647Z,35.45
2019-02-20T07:14:09.369Z,42.60
2019-02-20T07:17:30.550Z,45.23
2019-02-20T07:20:50.203Z,37.40
2019-02-20T07:23:43.687Z,32.65
2019-02-20T07:27:05.298Z,37.58
2019-02-20T07:30:05.077Z,33.02
2019-02-20T07:32:35.690Z,39.03
2019-02-20T07:35:08.055Z,37.42
2019-02-20T07:37:38.590Z,30.50
2019-02-20T07:40:12.330Z,37.15
2019-02-20T07:42:42.835Z,42.20
2019-02-20T07:45:15.584Z,39.03
2019-02-20T07:47:46.067Z,42.03
2019-02-20T07:50:20.368Z,37.60
2019-02-20T07:52:52.220Z,37.05
2019-02-20T07:55:22.717Z,38.95
2019-02-20T07:57:53.318Z,44.15
2019-02-20T08:00:23.885Z,41.95
2019-02-20T08:02:54.408Z,41.85
2019-02-20T08:05:24.938Z,39.67
2019-02-20T08:07:55.474Z,31.33
2019-02-20T08:10:26.003Z,43.45
2019-02-20T08:12:56.499Z,40.58
2019-02-20T08:15:27.061Z,41.20
2019-02-20T08:18:00.320Z,32.15
2019-02-20T08:20:30.896Z,41.60
2019-02-20T08:23:01.380Z,38.15
2019-02-20T08:25:31.947Z,44.88
2019-02-20T08:28:02.482Z,44.08
2019-02-20T08:30:33.101Z,40.85
2019-02-20T08:33:03.550Z,38.02
2019-02-20T08:35:34.048Z,41.88
2019-02-20T08:38:04.574Z,43.33
2019-02-20T08:40:38.143Z,43.75
2019-02-20T08:43:08.725Z,37.63
2019-02-20T08:45:39.254Z,40.25
2019-02-20T08:48:09.797Z,40.12
2019-02-20T08:50:40.278Z,43.38
2019-02-20T08:53:10.801Z,44.03
2019-02-20T08:55:41.314Z,36.95
2019-02-20T08:58:11.743Z,38.38
2019-02-20T09:00:42.269Z,48.17
2019-02-20T09:03:12.817Z,42.67
2019-02-20T09:05:43.330Z,41.40
2019-02-20T09:08:14.262Z,47.20
2019-02-20T09:10:44.779Z,40.45
2019-02-20T09:13:15.281Z,40.38
2019-02-20T09:15:48.340Z,40.63
2019-02-20T09:18:18.151Z,44.13
2019-02-20T09:20:48.644Z,35.83
2019-02-20T09:23:22.131Z,40.78
2019-02-20T09:25:53.409Z,34.83
2019-02-20T09:28:23.952Z,33.90
2019-02-20T09:30:54.525Z,36.20
2019-02-20T09:33:25.016Z,31.12
2019-02-20T09:35:55.600Z,42.33
2019-02-20T09:38:26.049Z,35.78
2019-02-20T09:40:56.643Z,42.17
2019-02-20T09:43:27.284Z,36.05
2019-02-20T09:45:57.806Z,38.50
2019-02-20T09:48:28.298Z,43.35
2019-02-20T09:50:58.865Z,38.95
2019-02-20T09:53:29.395Z,34.30
2019-02-20T09:55:59.946Z,39.40
2019-02-20T09:58:30.469Z,42.13
2019-02-20T10:01:02.748Z,35.92
2019-02-20T10:03:33.238Z,36.20
2019-02-20T10:11:22.778Z,31.45
2019-02-20T10:13:53.504Z,45.12
2019-02-20T10:16:24.021Z,38.40
2019-02-20T10:18:54.904Z,38.38
2019-02-20T10:21:25.501Z,31.57
2019-02-20T10:23:56.551Z,30.70
2019-02-20T10:26:27.144Z,33.73
2019-02-20T10:28:57.893Z,38.63
2019-02-20T10:31:28.370Z,36.50
2019-02-20T10:33:58.939Z,31.97
2019-02-20T10:36:29.901Z,36.55
2019-02-20T10:39:00.432Z,34.78
2019-02-20T10:41:30.960Z,34.55
2019-02-20T10:44:01.639Z,35.83
2019-02-20T10:46:32.159Z,38.67
2019-02-20T10:49:02.730Z,42.70
2019-02-20T10:51:33.301Z,32.33
2019-02-20T10:54:03.899Z,33.77
2019-02-20T10:56:34.499Z,45.45
2019-02-20T10:59:05.105Z,34.00
2019-02-20T11:01:35.645Z,36.05
2019-02-20T11:04:06.268Z,29.77
2019-02-20T11:06:36.775Z,39.92
2019-02-20T11:09:07.830Z,34.88
2019-02-20T11:11:38.384Z,44.30
2019-02-20T11:14:08.980Z,35.65
2019-02-20T11:16:39.609Z,27.80
2019-02-20T11:19:10.172Z,34.90
2019-02-20T11:21:40.686Z,31.45
2019-02-20T11:24:11.417Z,36.58
2019-02-20T11:26:50.462Z,39.63
2019-02-20T11:29:14.139Z,33.23
2019-02-20T11:31:44.687Z,36.77
2019-02-20T11:34:15.239Z,37.53
2019-02-20T11:36:45.732Z,33.05
2019-02-20T11:39:16.400Z,33.08
2019-02-20T11:41:46.944Z,36.95
2019-02-20T11:44:21.022Z,37.00
2019-02-20T11:46:49.760Z,30.57
2019-02-20T11:49:20.282Z,33.13
2019-02-20T11:51:50.765Z,34.10
2019-02-20T11:54:21.286Z,37.65
2019-02-20T11:56:51.825Z,41.48
2019-02-20T11:59:22.337Z,33.05
2019-02-20T12:01:53.363Z,28.98
2019-02-20T12:04:23.983Z,30.55
2019-02-20T12:06:54.465Z,37.10
2019-02-20T12:09:25.070Z,32.28
2019-02-20T12:11:55.820Z,29.80
2019-02-20T12:14:26.362Z,32.48
2019-02-20T12:16:56.911Z,29.75
2019-02-20T12:19:27.465Z,34.35
2019-02-20T12:21:58.029Z,31.65
2019-02-20T12:24:28.579Z,32.48
2019-02-20T12:26:59.297Z,35.63
2019-02-20T12:29:30.171Z,42.08
2019-02-20T12:32:00.694Z,42.60
2019-02-20T12:34:31.228Z,37.65
2019-02-20T12:37:01.812Z,34.23
2019-02-20T12:39:32.375Z,38.95
2019-02-20T12:42:02.941Z,37.48
2019-02-20T12:44:33.529Z,33.78
2019-02-20T12:47:04.081Z,34.40
2019-02-20T12:49:34.686Z,33.30
2019-02-20T12:52:05.182Z,36.10
2019-02-20T12:54:35.722Z,34.13
2019-02-20T12:57:06.248Z,31.25
2019-02-20T12:59:36.909Z,29.12
2019-02-20T13:02:07.791Z,33.73
2019-02-20T13:04:38.448Z,32.78
2019-02-20T13:07:08.969Z,32.42
2019-02-20T13:09:39.615Z,26.95
2019-02-20T13:12:10.099Z,28.87
2019-02-20T13:14:40.631Z,35.58
2019-02-20T13:17:11.201Z,28.92
2019-02-20T13:19:41.791Z,29.52
2019-02-20T13:22:12.292Z,30.50
2019-02-20T13:24:43.983Z,29.52
2019-02-20T13:27:22.576Z,27.60
2019-02-20T13:29:46.886Z,29.33
2019-02-20T13:32:23.270Z,30.48
2019-02-20T13:34:53.786Z,31.30
2019-02-20T13:37:25.130Z,33.20
2019-02-20T13:39:55.774Z,26.30
2019-02-20T13:42:26.351Z,26.50
2019-02-20T13:44:56.959Z,28.32
2019-02-20T13:47:27.525Z,33.63
2019-02-20T13:49:58.058Z,27.62
2019-02-20T13:52:30.420Z,29.82
2019-02-20T13:55:01.056Z,33.67
2019-02-20T13:57:31.621Z,28.47
2019-02-20T14:00:02.243Z,29.65
2019-02-20T14:02:32.785Z,30.23
2019-02-20T14:05:03.444Z,26.07
2019-02-20T14:07:34.086Z,28.70
2019-02-20T14:10:06.609Z,32.27
2019-02-20T14:12:37.617Z,32.03
2019-02-20T14:15:10.257Z,24.60
2019-02-20T14:17:40.860Z,32.85
2019-02-20T14:20:12.089Z,29.10
2019-02-20T14:22:43.162Z,27.40
2019-02-20T14:25:13.837Z,27.63
2019-02-20T14:27:44.422Z,33.60
2019-02-20T14:30:14.983Z,27.35
2019-02-20T14:32:46.886Z,35.58
2019-02-20T14:35:17.469Z,26.70
2019-02-20T14:37:48.046Z,25.17
2019-02-20T14:40:18.529Z,32.20
2019-02-20T14:42:49.000Z,31.07
2019-02-20T14:45:19.549Z,25.27
2019-02-20T14:47:50.027Z,22.27
2019-02-20T14:50:20.795Z,23.55
2019-02-20T14:52:51.305Z,25.90
2019-02-20T14:55:40.900Z,29.32
2019-02-20T14:58:11.528Z,37.00
2019-02-20T15:00:42.459Z,28.67
2019-02-20T15:03:12.986Z,27.55
2019-02-20T15:05:43.586Z,28.57
2019-02-20T15:08:14.106Z,23.50
2019-02-20T15:10:44.658Z,32.45
2019-02-20T15:13:15.175Z,27.32
2019-02-20T15:15:47.392Z,37.03
2019-02-20T15:18:18.156Z,31.45
2019-02-20T15:20:48.900Z,29.60
2019-02-20T15:23:19.364Z,24.95
2019-02-20T15:25:49.874Z,28.30
2019-02-20T15:28:20.732Z,29.95
2019-02-20T15:30:51.211Z,31.50
2019-02-20T15:33:23.425Z,31.07
2019-02-20T15:35:54.133Z,24.12
2019-02-20T15:38:24.662Z,31.20
2019-02-20T15:40:55.176Z,28.27
2019-02-20T15:43:25.710Z,36.73
2019-02-20T15:45:56.214Z,36.05
2019-02-20T15:48:26.848Z,31.25
2019-02-20T15:50:57.444Z,35.00
2019-02-20T15:53:27.947Z,36.17
2019-02-20T15:55:58.546Z,26.12
2019-02-20T15:58:29.094Z,29.25
2019-02-20T16:00:59.655Z,33.98
2019-02-20T16:03:30.123Z,28.87
2019-02-20T16:06:00.834Z,28.87
2019-02-20T16:08:31.443Z,28.10
2019-02-20T16:11:02.267Z,37.70
2019-02-20T16:13:32.857Z,32.00
2019-02-20T16:16:03.426Z,25.40
2019-02-20T16:18:33.969Z,32.45
2019-02-20T16:21:05.111Z,27.05
2019-02-20T16:23:36.303Z,26.12
2019-02-20T16:26:06.898Z,35.05
2019-02-20T16:28:37.527Z,25.15
2019-02-20T16:31:07.994Z,21.82
2019-02-20T16:33:38.814Z,25.02
2019-02-20T16:36:09.411Z,18.90
2019-02-20T16:38:40.204Z,20.23
2019-02-20T16:41:10.774Z,22.20
2019-02-20T16:43:41.333Z,18.60
2019-02-20T16:46:11.972Z,26.30
2019-02-20T16:48:43.214Z,18.03
2019-02-20T16:51:13.841Z,20.57
2019-02-20T16:53:44.556Z,18.92
2019-02-20T16:56:15.209Z,19.57
2019-02-20T16:58:45.775Z,20.57
2019-02-20T17:01:17.790Z,28.70
2019-02-20T17:03:48.339Z,19.27
2019-02-20T17:06:19.398Z,14.73
2019-02-20T17:08:50.217Z,18.60
2019-02-20T17:11:20.834Z,13.18
2019-02-20T17:13:51.319Z,18.02
2019-02-20T17:16:22.485Z,13.53
2019-02-20T17:18:53.168Z,17.87
2019-02-20T17:21:23.682Z,14.50
2019-02-20T17:23:54.233Z,12.85
2019-02-20T17:26:24.723Z,14.45
2019-02-20T17:28:55.207Z,18.20
2019-02-20T17:31:25.739Z,14.43
2019-02-20T17:33:56.584Z,13.80
2019-02-20T17:36:27.110Z,11.60
2019-02-20T17:38:57.588Z,14.47
2019-02-20T17:41:28.094Z,10.53
2019-02-20T17:43:58.561Z,15.37
2019-02-20T17:46:29.029Z,13.53
2019-02-20T17:48:59.578Z,9.28
2019-02-20T17:51:30.298Z,12.37
2019-02-20T17:54:00.796Z,14.18
2019-02-20T17:56:31.301Z,10.05
2019-02-20T17:59:01.840Z,9.75
2019-02-20T18:01:32.384Z,9.30
2019-02-20T18:04:02.929Z,7.05
2019-02-20T18:06:33.441Z,10.77
2019-02-20T18:09:04.504Z,10.45
2019-02-20T18:11:34.984Z,7.35
2019-02-20T18:14:05.492Z,13.88
2019-02-20T18:16:35.956Z,10.75
2019-02-20T18:19:06.453Z,9.68
2019-02-20T18:21:37.003Z,15.63
2019-02-20T18:24:07.598Z,12.80
2019-02-20T18:26:38.091Z,12.35
2019-02-20T18:29:08.603Z,12.95
2019-02-20T18:31:39.025Z,10.58
2019-02-20T18:34:09.553Z,13.25
2019-02-20T18:36:40.047Z,15.80
2019-02-20T18:39:10.623Z,9.43
2019-02-20T18:41:41.073Z,10.90
2019-02-20T18:44:11.654Z,9.43
2019-02-20T18:46:42.157Z,11.20
2019-02-20T18:49:12.665Z,14.90
2019-02-20T18:51:43.191Z,12.50
2019-02-20T18:54:13.748Z,9.75
2019-02-20T18:56:44.159Z,8.78
2019-02-20T18:59:14.640Z,8.87
2019-02-20T19:01:45.092Z,11.28
2019-02-20T19:04:15.601Z,12.10
2019-02-20T19:06:46.156Z,11.83
2019-02-20T19:09:24.534Z,14.68
2019-02-20T19:12:46.503Z,9.43
2019-02-20T19:16:04.762Z,10.05
2019-02-20T19:19:09.617Z,20.23
2019-02-20T19:22:26.756Z,14.25
2019-02-20T19:25:46.534Z,7.62
2019-02-20T19:29:15.563Z,12.27
2019-02-20T19:32:41.455Z,10.93
2019-02-20T19:36:03.377Z,11.33
2019-02-20T19:39:37.761Z,6.67
2019-02-20T19:43:02.363Z,12.10
2019-02-20T19:46:31.013Z,8.53
2019-02-20T19:50:10.899Z,13.78
2019-02-20T19:53:29.431Z,9.53
2019-02-20T19:56:31.703Z,11.35
2019-02-20T20:00:16.856Z,7.47
2019-02-20T20:03:33.575Z,16.27
2019-02-20T20:07:04.098Z,17.90
2019-02-20T20:10:22.429Z,9.70
2019-02-20T20:13:35.481Z,11.55
2019-02-20T20:17:04.624Z,10.28
2019-02-20T20:20:12.715Z,12.58
2019-02-20T20:23:49.578Z,14.98
2019-02-20T20:27:25.049Z,12.85
2019-02-20T20:31:13.692Z,14.18
2019-02-20T20:35:10.446Z,10.15
2019-02-20T20:38:46.652Z,11.95
2019-02-20T20:42:36.605Z,14.63
2019-02-20T20:46:25.410Z,13.20
2019-02-20T20:50:01.031Z,8.40
2019-02-20T20:52:56.093Z,13.05
2019-02-20T20:56:35.858Z,17.23
2019-02-20T20:59:44.459Z,13.18
2019-02-20T21:02:42.434Z,13.30
2019-02-20T21:05:53.029Z,16.70
2019-02-20T21:09:04.176Z,13.05
2019-02-20T21:12:39.058Z,14.20
2019-02-20T21:15:47.690Z,10.50
2019-02-20T21:18:58.844Z,34.73
2019-02-20T21:22:19.494Z,13.15
2019-02-20T21:25:51.794Z,13.20
2019-02-20T21:29:11.156Z,17.07
2019-02-20T21:33:00.343Z,14.90
2019-02-20T21:35:52.262Z,11.80
2019-02-20T21:39:33.882Z,17.48
2019-02-20T21:42:43.836Z,13.58
2019-02-20T21:46:02.768Z,14.38
2019-02-20T21:49:07.393Z,16.12
2019-02-20T21:52:49.657Z,15.43
2019-02-20T21:55:58.453Z,13.97
2019-02-20T21:58:51.017Z,15.45
2019-02-20T22:02:06.184Z,15.55
2019-02-20T22:05:42.114Z,17.30
2019-02-20T22:27:52.951Z,19.37
2019-02-20T22:31:19.921Z,17.87
2019-02-20T22:34:39.117Z,17.27
2019-02-20T22:37:56.059Z,25.27
2019-02-20T22:41:03.430Z,22.70
2019-02-20T22:44:07.193Z,19.02
2019-02-20T22:47:11.980Z,14.28
2019-02-20T22:50:43.157Z,25.25
2019-02-20T22:54:14.455Z,22.13
2019-02-20T22:57:34.528Z,20.70
2019-02-20T23:01:01.410Z,18.32
2019-02-20T23:04:16.922Z,24.35
2019-02-20T23:07:59.246Z,16.85
2019-02-20T23:11:29.266Z,18.07
2019-02-20T23:14:45.535Z,17.20
2019-02-20T23:17:16.019Z,21.15
2019-02-20T23:19:46.523Z,19.05
2019-02-20T23:22:17.116Z,21.37
2019-02-20T23:24:47.677Z,20.40
2019-02-20T23:27:18.217Z,19.67
2019-02-20T23:29:48.962Z,22.87
2019-02-20T23:32:19.487Z,23.62
2019-02-20T23:34:50.047Z,21.12
2019-02-20T23:37:20.674Z,24.77
2019-02-20T23:39:51.202Z,21.17
2019-02-20T23:42:21.894Z,18.92
2019-02-20T23:44:52.482Z,19.45
2019-02-20T23:47:23.100Z,21.65
2019-02-20T23:49:53.653Z,22.80
2019-02-20T23:52:24.197Z,19.15
2019-02-20T23:54:54.739Z,19.27
2019-02-20T23:57:25.448Z,23.67
2019-02-20T23:59:55.980Z,19.70
